Time;durP1;ratioP1;P1;durP2;ratioP2;P2;SDS_P1;SDS_P2;PMS_P1;PMS_P2;Temp;Humidity;BMP_temperature;BMP_pressure;BME280_temperature;BME280_humidity;BME280_pressure;Samples;Min_cycle;Max_cycle;Signal;HPM_P1;HPM_P2
2021/12/06 00:01:31;;;;;;;13.27;7.50;;;;;;;-0.31;100.00;94851.41;4834176;29;20394;-54
2021/12/06 00:04:01;;;;;;;9.80;6.50;;;;;;;0.36;100.00;94849.22;4838180;29;20049;-51
2021/12/06 00:06:33;;;;;;;10.05;6.32;;;;;;;0.14;98.25;94855.19;4840440;29;20050;-53
2021/12/06 00:09:02;;;;;;;10.32;6.03;;;;;;;-0.08;99.96;94858.47;4841551;29;20057;-51
2021/12/06 00:11:29;;;;;;;12.32;5.78;;;;;;;-0.26;100.00;94857.44;4837127;29;20042;-54
2021/12/06 00:14:03;;;;;;;10.15;5.20;;;;;;;-0.10;100.00;94851.84;4840092;29;20057;-49
2021/12/06 00:16:31;;;;;;;8.70;5.03;;;;;;;-0.16;100.00;94855.66;4840784;29;20072;-50
2021/12/06 00:18:58;;;;;;;8.65;4.68;;;;;;;0.56;96.89;94850.72;4839825;29;20490;-50
2021/12/06 00:21:27;;;;;;;9.57;5.28;;;;;;;0.24;98.84;94854.22;4830667;29;20498;-49
2021/12/06 00:23:54;;;;;;;8.90;5.43;;;;;;;-0.14;99.97;94856.19;4839894;29;20046;-51
2021/12/06 00:26:21;;;;;;;7.72;4.75;;;;;;;-0.04;100.00;94869.31;4838795;29;20041;-49
2021/12/06 00:28:56;;;;;;;9.18;6.70;;;;;;;-0.15;100.00;94871.34;4841924;29;20046;-52
2021/12/06 00:31:30;;;;;;;7.82;4.57;;;;;;;0.69;97.35;94870.44;4842062;29;20072;-52
2021/12/06 00:34:03;;;;;;;10.70;4.70;;;;;;;0.70;95.75;94872.00;4841051;29;20130;-50
2021/12/06 00:36:32;;;;;;;10.70;5.25;;;;;;;0.98;94.28;94878.13;4835462;29;20049;-56
2021/12/06 00:39:02;;;;;;;8.30;5.40;;;;;;;1.29;91.58;94872.94;4839211;29;20066;-54
2021/12/06 00:41:30;;;;;;;7.50;5.05;;;;;;;1.36;91.20;94878.66;4837826;29;20137;-55
2021/12/06 00:43:57;;;;;;;8.43;5.25;;;;;;;1.43;89.99;94877.47;4836103;29;20046;-54
2021/12/06 00:46:24;;;;;;;9.55;5.38;;;;;;;1.44;89.78;94890.50;4843213;29;20058;-53
2021/12/06 00:48:51;;;;;;;9.93;5.88;;;;;;;1.41;90.01;94885.78;4840610;29;20049;-54
2021/12/06 00:51:18;;;;;;;9.52;5.10;;;;;;;1.15;91.61;94896.16;4841213;29;20056;-53
2021/12/06 00:53:45;;;;;;;6.88;4.70;;;;;;;0.81;94.84;94894.69;4833975;29;20393;-53
2021/12/06 00:56:13;;;;;;;7.47;3.95;;;;;;;0.61;93.15;94895.84;4836563;29;20432;-51
2021/12/06 00:58:40;;;;;;;7.80;4.03;;;;;;;1.19;92.52;94893.69;4825502;29;20064;-54
2021/12/06 01:01:08;;;;;;;7.47;3.83;;;;;;;1.02;94.09;94884.44;4841640;29;20056;-54
2021/12/06 01:03:38;;;;;;;6.10;3.80;;;;;;;1.10;93.14;94897.03;4836556;29;20046;-50
2021/12/06 01:06:08;;;;;;;6.72;3.33;;;;;;;1.30;91.06;94898.53;4808289;29;20043;-52
2021/12/06 01:08:36;;;;;;;7.38;4.50;;;;;;;0.85;94.36;94901.00;4836591;29;20132;-52
2021/12/06 01:11:06;;;;;;;12.05;4.22;;;;;;;-0.06;98.86;94898.84;4840240;29;20054;-49
2021/12/06 01:13:35;;;;;;;5.53;3.35;;;;;;;0.17;98.49;94902.47;4839461;29;20471;-51
2021/12/06 01:16:03;;;;;;;8.88;4.47;;;;;;;-0.29;100.00;94913.81;4825435;29;20458;-52
2021/12/06 01:18:30;;;;;;;7.35;4.50;;;;;;;0.83;95.87;94907.72;4839020;29;20466;-51
2021/12/06 01:21:10;;;;;;;8.40;4.90;;;;;;;0.83;95.50;94916.50;4839811;29;20512;-50
2021/12/06 01:23:57;;;;;;;9.27;6.45;;;;;;;0.40;98.96;94929.25;4823604;29;20049;-54
2021/12/06 01:32:19;;;;;;;12.15;7.47;;;;;;;-0.42;100.00;94935.81;4839606;29;20053;-55
2021/12/06 01:40:20;;;;;;;26.67;15.48;;;;;;;-0.26;100.00;94947.81;4840065;29;20076;-48
2021/12/06 01:42:48;;;;;;;29.00;15.73;;;;;;;-0.32;100.00;94948.16;4822941;29;20046;-52
2021/12/06 01:45:15;;;;;;;29.83;16.05;;;;;;;-0.14;100.00;94949.22;4839748;29;20069;-50
2021/12/06 01:47:46;;;;;;;27.45;16.67;;;;;;;-0.19;100.00;94951.97;4838996;29;20041;-51
2021/12/06 01:50:24;;;;;;;27.15;17.40;;;;;;;0.20;100.00;94947.13;4840974;29;20053;-50
2021/12/06 01:52:56;;;;;;;26.35;16.15;;;;;;;0.04;100.00;94960.94;4832945;29;20046;-54
2021/12/06 01:55:29;;;;;;;27.90;15.38;;;;;;;-0.06;100.00;94961.88;4814644;29;20047;-54
2021/12/06 01:57:57;;;;;;;29.77;16.80;;;;;;;0.77;100.00;94954.16;4837574;29;20049;-51
2021/12/06 02:00:29;;;;;;;34.17;16.77;;;;;;;1.14;97.46;94959.31;4839105;29;20301;-49
2021/12/06 02:03:01;;;;;;;27.33;16.25;;;;;;;0.81;97.04;94953.25;4821116;29;20054;-55
2021/12/06 02:05:36;;;;;;;29.77;17.25;;;;;;;-0.14;100.00;94957.22;4827460;29;20396;-55
2021/12/06 02:08:06;;;;;;;27.10;15.77;;;;;;;-0.29;100.00;94961.66;4838307;29;20508;-54
2021/12/06 02:10:35;;;;;;;28.55;16.52;;;;;;;-0.32;100.00;94958.81;4832223;29;20145;-52
2021/12/06 02:13:07;;;;;;;27.15;15.52;;;;;;;-0.39;100.00;94964.47;4828514;29;20049;-55
2021/12/06 02:15:42;;;;;;;29.48;15.57;;;;;;;-0.39;100.00;94971.63;4847163;29;20050;-55
2021/12/06 02:18:27;;;;;;;26.95;15.13;;;;;;;-0.32;100.00;94967.56;4832310;29;20117;-55
2021/12/06 02:21:03;;;;;;;24.42;14.10;;;;;;;-0.21;100.00;94957.56;4824264;29;20588;-50
2021/12/06 02:23:30;;;;;;;28.65;15.52;;;;;;;-0.38;100.00;94966.03;4819967;29;20043;-53
2021/12/06 02:25:58;;;;;;;23.25;14.25;;;;;;;-0.29;100.00;94964.34;4833689;29;20432;-54
2021/12/06 02:28:26;;;;;;;23.90;14.27;;;;;;;-0.33;100.00;94954.53;4820150;29;20061;-56
2021/12/06 02:30:53;;;;;;;26.23;14.00;;;;;;;-0.22;100.00;94966.63;4840370;29;20069;-54
2021/12/06 02:33:22;;;;;;;24.58;14.07;;;;;;;0.36;100.00;94960.19;4835662;29;20377;-52
2021/12/06 02:35:49;;;;;;;23.83;14.60;;;;;;;1.03;98.22;94960.59;4838926;29;20219;-54
2021/12/06 02:38:16;;;;;;;24.38;14.50;;;;;;;1.36;95.42;94958.59;4838923;29;20049;-53
2021/12/06 02:40:43;;;;;;;26.10;14.98;;;;;;;1.37;93.89;94964.75;4821086;29;20703;-54
2021/12/06 02:43:11;;;;;;;26.95;14.23;;;;;;;1.29;94.59;94968.09;4834478;29;20078;-56
2021/12/06 02:48:42;;;;;;;22.52;14.05;;;;;;;1.25;95.46;94970.56;5587218;24;20046;-49
2021/12/06 02:51:12;;;;;;;24.33;14.98;;;;;;;1.52;93.44;94972.41;4828797;29;20472;-48
2021/12/06 02:53:40;;;;;;;22.27;13.52;;;;;;;1.51;92.82;94970.06;4821966;29;20042;-48
2021/12/06 02:58:58;;;;;;;24.55;13.90;;;;;;;0.31;99.45;94992.97;4826252;29;20046;-49
2021/12/06 03:01:39;;;;;;;;;;;;;;;0.07;100.00;94989.63;4814607;29;20658;-48
2021/12/06 03:04:07;;;;;;;20.13;11.90;;;;;;;0.17;100.00;94989.47;4836818;29;19936;-53
2021/12/06 03:06:35;;;;;;;19.48;11.23;;;;;;;-0.24;100.00;94982.84;4820728;29;20081;-50
2021/12/06 03:09:11;;;;;;;20.35;11.75;;;;;;;-0.33;100.00;94991.75;4813794;29;20057;-49
2021/12/06 03:12:07;;;;;;;18.52;11.48;;;;;;;-0.21;100.00;94992.13;4776753;29;20057;-52
2021/12/06 03:14:41;;;;;;;21.17;11.80;;;;;;;0.10;100.00;94999.66;4817629;29;20058;-50
2021/12/06 03:17:14;;;;;;;20.50;12.73;;;;;;;0.47;100.00;94999.63;4807369;29;20055;-51
2021/12/06 03:19:43;;;;;;;24.20;12.80;;;;;;;0.24;100.00;95008.50;4822188;29;20051;-51
2021/12/06 03:22:13;;;;;;;22.25;12.10;;;;;;;0.76;98.95;94992.53;4806877;29;20501;-50
2021/12/06 03:24:43;;;;;;;19.95;12.30;;;;;;;0.34;100.00;95004.91;4804411;29;20086;-52
2021/12/06 03:27:11;;;;;;;20.42;13.23;;;;;;;0.11;100.00;95010.03;4791597;29;20417;-48
2021/12/06 03:29:39;;;;;;;21.02;13.40;;;;;;;0.93;99.23;95001.50;4805139;29;20142;-50
2021/12/06 03:32:07;;;;;;;21.85;13.55;;;;;;;1.36;95.70;95013.78;4792678;29;20058;-49
2021/12/06 03:34:36;;;;;;;23.27;13.05;;;;;;;1.64;92.84;94996.69;4821566;29;20129;-49
2021/12/06 03:37:06;;;;;;;22.55;13.73;;;;;;;0.94;94.89;94988.97;4794713;29;20123;-50
2021/12/06 03:39:43;;;;;;;21.38;12.63;;;;;;;0.26;99.87;95018.84;4792322;29;20096;-49
2021/12/06 03:42:18;;;;;;;21.92;13.45;;;;;;;0.03;100.00;95026.63;4815575;29;20042;-51
2021/12/06 03:44:46;;;;;;;23.95;14.13;;;;;;;-0.17;100.00;95033.00;4793531;29;20197;-49
2021/12/06 03:47:24;;;;;;;20.73;12.98;;;;;;;-0.13;100.00;95025.25;4798455;29;20510;-48
2021/12/06 03:49:52;;;;;;;20.48;12.43;;;;;;;-0.09;100.00;95021.75;4783516;29;20152;-49
2021/12/06 03:52:20;;;;;;;23.20;13.68;;;;;;;0.65;100.00;95015.84;4818240;29;20057;-51
2021/12/06 03:54:49;;;;;;;23.35;12.95;;;;;;;-0.11;100.00;95029.22;4821698;29;20054;-50
2021/12/06 03:57:19;;;;;;;22.63;13.07;;;;;;;-0.36;100.00;95032.97;4805185;29;20119;-49
2021/12/06 03:59:47;;;;;;;24.35;13.88;;;;;;;-0.43;100.00;95031.75;4805066;29;20063;-53
2021/12/06 04:02:15;;;;;;;24.42;14.23;;;;;;;-0.43;100.00;95040.50;4812222;29;20663;-54
2021/12/06 04:04:43;;;;;;;25.55;14.25;;;;;;;-0.49;100.00;95037.13;4791352;29;20061;-51
2021/12/06 04:07:11;;;;;;;23.63;14.38;;;;;;;-0.49;100.00;95041.63;4802287;29;20090;-51
2021/12/06 04:09:40;;;;;;;24.27;14.77;;;;;;;-0.41;100.00;95041.03;4804543;29;20474;-53
2021/12/06 04:12:09;;;;;;;25.15;15.10;;;;;;;-0.32;100.00;95051.81;4809644;29;20058;-55
2021/12/06 04:14:38;;;;;;;28.15;16.80;;;;;;;-0.29;100.00;95054.69;4801997;29;20494;-52
2021/12/06 04:17:06;;;;;;;26.10;15.35;;;;;;;-0.55;100.00;95029.50;4799926;29;20506;-52
2021/12/06 04:19:34;;;;;;;27.77;15.85;;;;;;;-0.59;100.00;95045.19;4809791;29;20402;-54
2021/12/06 04:22:03;;;;;;;29.13;15.23;;;;;;;-0.58;100.00;95056.66;4811383;29;20069;-54
2021/12/06 04:24:30;;;;;;;30.20;16.40;;;;;;;-0.57;100.00;95050.25;4815015;29;20102;-54
2021/12/06 04:27:02;;;;;;;28.05;16.33;;;;;;;-0.57;100.00;95055.56;4825426;29;20479;-51
2021/12/06 04:29:29;;;;;;;30.75;17.63;;;;;;;-0.66;100.00;95049.28;4813152;29;20052;-52
2021/12/06 04:31:56;;;;;;;28.88;16.77;;;;;;;-0.03;100.00;95060.50;4823364;29;20056;-55
2021/12/06 04:34:24;;;;;;;29.58;17.27;;;;;;;0.38;100.00;95048.47;4805145;29;20051;-54
2021/12/06 04:36:52;;;;;;;33.25;17.65;;;;;;;-0.29;100.00;95059.22;4805454;29;20046;-51
2021/12/06 04:39:21;;;;;;;32.78;15.95;;;;;;;-0.11;100.00;95074.41;4800610;29;20322;-51
2021/12/06 04:41:51;;;;;;;30.70;16.60;;;;;;;-0.36;100.00;95067.53;4814462;29;20510;-52
2021/12/06 04:44:19;;;;;;;31.42;17.55;;;;;;;0.06;100.00;95071.25;4800178;29;20039;-53
2021/12/06 04:46:47;;;;;;;29.42;15.35;;;;;;;-0.18;100.00;95073.97;4816497;29;20068;-53
2021/12/06 04:49:14;;;;;;;30.92;15.98;;;;;;;0.18;100.00;95079.59;4803163;29;20054;-52
2021/12/06 04:51:46;;;;;;;27.83;15.15;;;;;;;0.81;100.00;95077.63;4815438;29;20113;-52
2021/12/06 04:54:15;;;;;;;31.73;15.40;;;;;;;0.63;100.00;95100.53;4833546;29;20637;-52
2021/12/06 04:56:48;;;;;;;29.05;14.95;;;;;;;-0.31;100.00;95077.31;4806651;29;20047;-52
2021/12/06 04:59:33;;;;;;;31.38;16.33;;;;;;;-0.33;100.00;95095.41;4794386;29;20054;-49
2021/12/06 05:02:08;;;;;;;27.67;15.05;;;;;;;-0.37;100.00;95100.50;4816911;29;20689;-49
2021/12/06 05:04:39;;;;;;;28.73;15.98;;;;;;;-0.41;100.00;95088.06;4804943;29;20505;-47
2021/12/06 05:07:13;;;;;;;31.88;16.70;;;;;;;0.07;100.00;95101.31;4825040;29;20110;-48
2021/12/06 05:09:43;;;;;;;34.83;17.30;;;;;;;-0.15;100.00;95107.97;4827973;29;20524;-51
2021/12/06 05:12:14;;;;;;;32.95;16.42;;;;;;;-0.38;100.00;95109.56;4828552;29;20472;-51
2021/12/06 05:14:42;;;;;;;34.50;16.75;;;;;;;-0.49;100.00;95118.69;4818857;29;20477;-50
2021/12/06 05:17:09;;;;;;;32.17;18.10;;;;;;;-0.32;100.00;95113.75;4830380;29;20050;-50
2021/12/06 05:19:37;;;;;;;31.23;16.63;;;;;;;-0.28;100.00;95113.97;4815325;29;20146;-51
2021/12/06 05:22:06;;;;;;;31.00;17.42;;;;;;;-0.27;100.00;95126.97;4808176;29;20057;-54
2021/12/06 05:24:34;;;;;;;28.73;16.30;;;;;;;-0.30;100.00;95118.75;4804429;29;20122;-51
2021/12/06 05:27:01;;;;;;;30.30;16.98;;;;;;;-0.38;100.00;95124.72;4820984;29;20037;-49
2021/12/06 05:29:30;;;;;;;31.38;17.58;;;;;;;-0.40;100.00;95127.63;4811779;29;20073;-51
2021/12/06 05:31:59;;;;;;;30.95;16.48;;;;;;;0.19;100.00;95129.06;4818459;29;20047;-52
2021/12/06 05:34:34;;;;;;;29.85;16.27;;;;;;;0.40;100.00;95129.59;4805169;29;20421;-51
2021/12/06 05:37:01;;;;;;;31.83;17.88;;;;;;;0.66;100.00;95139.91;4811665;29;20125;-55
2021/12/06 05:39:31;;;;;;;27.92;16.73;;;;;;;0.26;100.00;95144.72;4811640;29;20046;-53
2021/12/06 05:42:03;;;;;;;28.77;16.27;;;;;;;0.08;100.00;95140.94;4824257;29;20081;-52
2021/12/06 05:44:31;;;;;;;32.83;17.63;;;;;;;0.29;100.00;95153.97;4806006;29;20054;-51
2021/12/06 05:46:59;;;;;;;29.27;16.08;;;;;;;0.55;100.00;95147.22;4789767;29;20108;-51
2021/12/06 05:49:27;;;;;;;28.80;16.50;;;;;;;0.31;100.00;95151.81;4809515;29;20466;-51
2021/12/06 05:51:55;;;;;;;25.80;15.95;;;;;;;0.05;100.00;95156.66;4811727;29;20516;-53
2021/12/06 05:54:23;;;;;;;24.27;14.95;;;;;;;0.46;100.00;95162.28;4828539;29;20134;-52
2021/12/06 05:56:51;;;;;;;27.48;15.13;;;;;;;0.64;100.00;95166.00;4803295;29;20042;-52
2021/12/06 05:59:18;;;;;;;28.15;16.08;;;;;;;0.49;100.00;95164.38;4814214;29;20429;-57
2021/12/06 06:01:48;;;;;;;29.55;16.02;;;;;;;0.58;99.33;95175.94;4816498;29;20050;-54
2021/12/06 06:04:16;;;;;;;30.50;16.35;;;;;;;0.62;100.00;95168.19;4820697;29;20046;-49
2021/12/06 06:06:43;;;;;;;32.53;16.40;;;;;;;0.97;97.44;95180.16;4804955;29;20078;-55
2021/12/06 06:09:10;;;;;;;27.45;14.82;;;;;;;0.98;96.60;95165.78;4822119;29;20051;-56
2021/12/06 06:11:37;;;;;;;26.33;15.23;;;;;;;0.56;98.70;95180.75;4808406;29;20042;-53
2021/12/06 06:14:06;;;;;;;28.58;15.23;;;;;;;0.21;100.00;95188.09;4811207;29;20390;-56
2021/12/06 06:16:45;;;;;;;28.23;15.10;;;;;;;0.25;100.00;95192.88;4803411;29;20058;-54
2021/12/06 06:19:13;;;;;;;27.50;14.68;;;;;;;-0.17;100.00;95210.34;4805435;29;20421;-55
2021/12/06 06:21:40;;;;;;;27.33;15.27;;;;;;;-0.42;100.00;95198.91;4803456;29;20501;-53
2021/12/06 06:24:07;;;;;;;26.70;15.52;;;;;;;-0.32;100.00;95209.44;4804840;29;20046;-50
2021/12/06 06:26:35;;;;;;;28.50;15.18;;;;;;;-0.28;100.00;95205.13;4788974;29;20099;-54
2021/12/06 06:29:03;;;;;;;29.02;14.85;;;;;;;-0.28;100.00;95210.44;4820096;29;20771;-55
2021/12/06 06:31:30;;;;;;;27.83;16.38;;;;;;;-0.35;100.00;95215.31;4803094;29;20121;-47
2021/12/06 06:33:57;;;;;;;33.97;16.55;;;;;;;-0.39;100.00;95211.63;4812311;29;20131;-49
2021/12/06 06:36:24;;;;;;;30.02;16.02;;;;;;;-0.25;100.00;95228.50;4821399;29;20050;-50
2021/12/06 06:38:51;;;;;;;30.85;15.20;;;;;;;-0.02;100.00;95229.59;4820607;29;20102;-50
2021/12/06 06:41:18;;;;;;;30.38;15.88;;;;;;;0.15;100.00;95229.16;4810776;29;20087;-51
2021/12/06 06:43:46;;;;;;;32.30;15.85;;;;;;;0.22;100.00;95236.78;4820673;29;20051;-53
2021/12/06 06:46:13;;;;;;;37.78;16.92;;;;;;;0.15;100.00;95234.47;4802449;29;20613;-53
2021/12/06 06:48:40;;;;;;;32.53;15.95;;;;;;;0.06;100.00;95246.78;4817644;29;20047;-49
2021/12/06 06:51:08;;;;;;;33.38;15.88;;;;;;;-0.18;100.00;95243.34;4801744;29;20050;-54
2021/12/06 06:53:35;;;;;;;31.13;16.95;;;;;;;-0.28;100.00;95247.66;4823476;29;20815;-50
2021/12/06 06:56:02;;;;;;;31.05;15.85;;;;;;;-0.24;100.00;95254.00;4811785;29;20047;-53
2021/12/06 06:58:29;;;;;;;33.33;15.88;;;;;;;-0.14;100.00;95268.28;4815537;29;20466;-54
2021/12/06 07:00:56;;;;;;;27.92;15.13;;;;;;;0.07;100.00;95263.56;4805777;29;20518;-54
2021/12/06 07:03:24;;;;;;;28.77;15.00;;;;;;;-0.26;100.00;95266.78;4802950;29;20051;-56
2021/12/06 07:05:51;;;;;;;31.80;15.98;;;;;;;-0.25;100.00;95273.69;4807688;29;20513;-54
2021/12/06 07:08:18;;;;;;;35.80;16.10;;;;;;;-0.47;100.00;95266.16;4820866;29;20046;-51
2021/12/06 07:10:49;;;;;;;29.98;15.70;;;;;;;-0.40;100.00;95271.16;4821874;29;20110;-50
2021/12/06 07:13:17;;;;;;;28.50;14.95;;;;;;;-0.14;100.00;95276.25;4810262;29;20050;-50
2021/12/06 07:15:44;;;;;;;35.20;17.20;;;;;;;-0.27;100.00;95275.81;4814856;29;20529;-52
2021/12/06 07:18:11;;;;;;;37.22;18.20;;;;;;;-0.11;100.00;95287.13;4809079;29;20542;-54
2021/12/06 07:20:38;;;;;;;31.17;15.93;;;;;;;-0.07;100.00;95285.47;4834498;29;20050;-51
2021/12/06 07:23:05;;;;;;;29.75;16.17;;;;;;;-0.18;100.00;95293.84;4821577;29;20539;-51
2021/12/06 07:25:34;;;;;;;35.58;17.75;;;;;;;0.03;100.00;95307.75;4821176;29;20433;-55
2021/12/06 07:28:04;;;;;;;31.77;16.55;;;;;;;-0.05;100.00;95299.28;4790772;29;20058;-50
2021/12/06 07:30:32;;;;;;;30.38;16.58;;;;;;;0.20;100.00;95300.94;4804568;29;20454;-53
2021/12/06 07:32:59;;;;;;;28.42;15.68;;;;;;;0.01;100.00;95301.91;4832173;29;20061;-56
2021/12/06 07:35:29;;;;;;;32.08;16.10;;;;;;;-0.17;100.00;95290.09;4817452;29;20065;-51
2021/12/06 07:37:58;;;;;;;30.42;16.23;;;;;;;-0.51;100.00;95281.09;4822733;29;20431;-55
2021/12/06 07:40:25;;;;;;;29.25;16.77;;;;;;;0.17;100.00;95316.66;4821584;29;20142;-53
2021/12/06 07:42:52;;;;;;;27.25;15.50;;;;;;;-0.23;100.00;95318.59;4822008;29;20043;-48
2021/12/06 07:45:19;;;;;;;27.63;16.08;;;;;;;-0.30;100.00;95313.59;4806524;29;20563;-53
2021/12/06 07:47:47;;;;;;;27.52;15.50;;;;;;;0.29;100.00;95311.72;4785376;29;20509;-51
2021/12/06 07:50:18;;;;;;;28.42;16.67;;;;;;;0.93;99.28;95329.09;4812785;29;20123;-51
2021/12/06 07:52:49;;;;;;;30.77;16.17;;;;;;;0.05;100.00;95326.88;4813464;29;20054;-47
2021/12/06 07:55:19;;;;;;;33.33;17.65;;;;;;;-0.11;100.00;95321.69;4809589;29;20589;-57
2021/12/06 07:57:47;;;;;;;35.97;18.50;;;;;;;-0.20;100.00;95331.31;4814921;29;20106;-50
2021/12/06 08:00:19;;;;;;;34.35;17.25;;;;;;;-0.33;100.00;95329.31;4806891;29;20539;-52
2021/12/06 08:02:47;;;;;;;35.17;17.58;;;;;;;-0.45;100.00;95316.38;4802175;29;20089;-50
2021/12/06 08:05:30;;;;;;;31.58;17.15;;;;;;;-0.10;100.00;95323.28;4818573;29;20477;-50
2021/12/06 08:08:01;;;;;;;30.73;17.27;;;;;;;0.25;100.00;95309.94;4804260;29;20050;-51
2021/12/06 08:10:29;;;;;;;31.10;16.85;;;;;;;0.20;100.00;95337.38;4823171;29;20056;-56
2021/12/06 08:12:56;;;;;;;35.33;17.67;;;;;;;-0.34;100.00;95323.19;4831542;29;20119;-54
2021/12/06 08:15:23;;;;;;;31.50;16.65;;;;;;;-0.36;100.00;95338.63;4808401;29;20137;-52
2021/12/06 08:17:50;;;;;;;28.58;16.35;;;;;;;-0.27;100.00;95341.50;4814746;29;20153;-54
2021/12/06 08:20:18;;;;;;;32.13;16.30;;;;;;;-0.07;100.00;95349.28;4818297;29;20115;-53
2021/12/06 08:22:47;;;;;;;29.52;15.75;;;;;;;-0.46;100.00;95352.00;4813403;29;20039;-54
2021/12/06 08:25:16;;;;;;;26.48;13.45;;;;;;;-0.62;100.00;95355.81;4804849;29;20133;-51
2021/12/06 08:27:44;;;;;;;32.17;15.82;;;;;;;-0.48;100.00;95349.63;4815636;29;20061;-51
2021/12/06 08:30:12;;;;;;;34.28;17.20;;;;;;;-0.54;100.00;95344.63;4812575;29;20054;-53
2021/12/06 08:32:40;;;;;;;31.63;15.77;;;;;;;0.07;100.00;95351.34;4817961;29;20058;-54
2021/12/06 08:35:28;;;;;;;33.22;17.23;;;;;;;-0.08;100.00;95352.25;4810952;29;20115;-55
2021/12/06 08:37:57;;;;;;;34.13;16.80;;;;;;;0.05;100.00;95362.25;4812207;29;20077;-54
2021/12/06 08:40:26;;;;;;;31.17;16.55;;;;;;;0.21;100.00;95350.38;4815025;29;20145;-52
2021/12/06 08:42:53;;;;;;;29.27;16.80;;;;;;;0.91;100.00;95367.75;4806810;29;20058;-50
2021/12/06 08:45:21;;;;;;;31.88;16.25;;;;;;;0.71;98.66;95347.47;4823328;29;20113;-52
2021/12/06 08:47:48;;;;;;;36.08;17.10;;;;;;;0.45;100.00;95349.63;4826309;29;20491;-54
2021/12/06 08:50:22;;;;;;;42.80;19.70;;;;;;;0.67;99.11;95357.13;4821384;29;20054;-51
2021/12/06 08:52:51;;;;;;;37.65;18.27;;;;;;;0.87;98.23;95372.06;4805733;29;20062;-51
2021/12/06 08:55:19;;;;;;;36.67;17.52;;;;;;;1.08;96.67;95373.44;4821233;29;20409;-51
2021/12/06 08:57:46;;;;;;;35.60;16.77;;;;;;;0.88;97.68;95371.00;4822491;29;20145;-52
2021/12/06 09:00:21;;;;;;;33.25;17.52;;;;;;;1.14;97.11;95387.50;4833147;29;20114;-51
2021/12/06 09:02:47;;;;;;;31.90;15.68;;;;;;;0.65;96.93;95368.06;4826488;29;20050;-48
2021/12/06 09:05:24;;;;;;;30.13;14.48;;;;;;;0.36;100.00;95388.59;4823794;29;20043;-51
2021/12/06 09:07:52;;;;;;;34.80;14.63;;;;;;;0.13;100.00;95398.06;4811376;29;20049;-53
2021/12/06 09:10:19;;;;;;;31.25;15.50;;;;;;;0.68;100.00;95388.81;4819725;29;20122;-49
2021/12/06 09:12:46;;;;;;;32.47;16.27;;;;;;;0.95;98.98;95392.75;4825143;29;20046;-51
2021/12/06 09:15:17;;;;;;;34.83;17.02;;;;;;;0.53;99.99;95394.28;4831627;29;20145;-51
2021/12/06 09:17:48;;;;;;;34.08;16.95;;;;;;;0.56;100.00;95393.72;4807583;29;20130;-51
2021/12/06 09:20:16;;;;;;;38.05;17.58;;;;;;;0.52;100.00;95397.19;4808008;29;20069;-53
2021/12/06 09:22:45;;;;;;;40.38;18.63;;;;;;;0.75;100.00;95396.44;4815543;29;20097;-51
2021/12/06 09:25:13;;;;;;;39.08;18.80;;;;;;;0.74;98.66;95388.72;4828654;29;20050;-47
2021/12/06 09:27:40;;;;;;;41.08;18.60;;;;;;;0.84;99.41;95396.59;4799902;29;20059;-56
2021/12/06 09:30:11;;;;;;;37.97;18.13;;;;;;;0.87;98.77;95399.50;4815200;29;20051;-54
2021/12/06 09:32:40;;;;;;;39.75;17.95;;;;;;;1.10;96.71;95403.22;4808786;29;20134;-55
2021/12/06 09:35:11;;;;;;;42.25;17.80;;;;;;;0.31;100.00;95408.03;4817372;29;20369;-52
2021/12/06 09:37:39;;;;;;;41.15;17.60;;;;;;;0.63;99.55;95394.16;4820263;29;20056;-50
2021/12/06 09:40:08;;;;;;;35.03;16.90;;;;;;;0.82;100.00;95396.91;4830548;29;20061;-52
2021/12/06 09:42:37;;;;;;;36.28;17.33;;;;;;;1.27;97.21;95407.28;4824111;29;20070;-52
2021/12/06 09:45:07;;;;;;;37.42;17.52;;;;;;;1.23;95.74;95399.06;4818649;29;20412;-52
2021/12/06 09:47:35;;;;;;;35.05;16.50;;;;;;;1.02;98.57;95392.41;4825527;29;20049;-50
2021/12/06 09:50:04;;;;;;;32.38;16.45;;;;;;;1.00;98.48;95397.22;4834019;29;20058;-51
2021/12/06 09:52:31;;;;;;;35.10;17.00;;;;;;;0.99;97.21;95391.13;4819921;29;20046;-49
2021/12/06 09:54:58;;;;;;;35.00;17.38;;;;;;;1.27;96.20;95385.97;4821617;29;20138;-52
2021/12/06 09:57:25;;;;;;;47.35;24.98;;;;;;;1.33;94.50;95396.31;4807928;29;20462;-51
2021/12/06 09:59:53;;;;;;;39.35;18.95;;;;;;;1.01;95.59;95398.81;4813780;29;20050;-52
2021/12/06 10:02:20;;;;;;;33.67;16.90;;;;;;;0.98;96.36;95389.53;4824012;29;20404;-53
2021/12/06 10:04:54;;;;;;;37.78;17.42;;;;;;;0.88;97.23;95393.09;4827050;29;20125;-55
2021/12/06 10:07:23;;;;;;;36.85;17.13;;;;;;;1.04;96.12;95396.41;4812512;29;20105;-52
2021/12/06 10:09:51;;;;;;;35.40;17.52;;;;;;;0.84;99.08;95396.59;4820908;29;20053;-52
2021/12/06 10:12:21;;;;;;;32.72;16.30;;;;;;;1.20;96.42;95393.53;4819325;29;20133;-52
2021/12/06 10:14:49;;;;;;;36.33;15.68;;;;;;;1.45;94.88;95403.88;4818443;29;20047;-52
2021/12/06 10:17:18;;;;;;;33.45;16.83;;;;;;;0.80;94.99;95361.75;4823684;29;20077;-50
2021/12/06 10:19:47;;;;;;;33.28;15.95;;;;;;;1.59;93.85;95391.44;4818350;29;20456;-52
2021/12/06 10:22:15;;;;;;;33.08;16.63;;;;;;;1.42;94.63;95392.97;4810058;29;20143;-54
2021/12/06 10:24:54;;;;;;;36.20;16.55;;;;;;;1.71;93.43;95398.19;4808416;29;20046;-51
2021/12/06 10:27:21;;;;;;;36.67;16.90;;;;;;;1.63;93.71;95405.75;4822706;29;20046;-54
2021/12/06 10:29:59;;;;;;;36.58;16.55;;;;;;;1.43;93.32;95399.91;4803938;29;20146;-53
2021/12/06 10:32:32;;;;;;;32.28;16.38;;;;;;;0.49;99.21;95406.56;4804894;29;20051;-50
2021/12/06 10:35:09;;;;;;;32.00;14.63;;;;;;;0.28;100.00;95391.84;4820382;29;20078;-52
2021/12/06 10:37:45;;;;;;;31.42;14.48;;;;;;;0.08;100.00;95401.59;4809510;29;20134;-56
2021/12/06 10:40:21;;;;;;;29.15;14.52;;;;;;;0.16;100.00;95400.19;4805410;29;20103;-53
2021/12/06 10:42:51;;;;;;;31.25;15.90;;;;;;;0.60;100.00;95397.38;4824936;29;20522;-55
2021/12/06 10:45:28;;;;;;;33.20;16.05;;;;;;;0.97;99.46;95392.47;4816720;29;20042;-52
2021/12/06 10:48:19;;;;;;;32.22;16.63;;;;;;;0.70;100.00;95386.63;4822391;29;20448;-51
2021/12/06 10:50:52;;;;;;;35.63;17.98;;;;;;;0.99;97.52;95395.66;4831008;29;20050;-50
2021/12/06 10:53:31;;;;;;;36.63;16.95;;;;;;;0.39;100.00;95396.00;4824466;29;20042;-54
2021/12/06 10:56:00;;;;;;;30.70;15.48;;;;;;;0.32;100.00;95403.50;4813376;29;20051;-50
2021/12/06 10:58:29;;;;;;;33.22;16.88;;;;;;;0.78;100.00;95393.22;4813777;29;20077;-52
2021/12/06 11:01:06;;;;;;;34.05;18.15;;;;;;;1.03;99.46;95394.00;4821208;29;20050;-51
2021/12/06 11:03:45;;;;;;;36.22;16.75;;;;;;;1.31;96.87;95401.13;4800929;29;20137;-53
2021/12/06 11:06:24;;;;;;;34.90;17.65;;;;;;;0.81;99.51;95394.50;4825842;29;20080;-52
2021/12/06 11:08:55;;;;;;;31.95;16.67;;;;;;;1.51;96.23;95402.72;4819305;29;20077;-53
2021/12/06 11:11:27;;;;;;;34.38;17.17;;;;;;;1.55;95.50;95398.38;4822298;29;20055;-51
2021/12/06 11:14:00;;;;;;;36.40;17.20;;;;;;;0.74;98.44;95404.69;4806313;29;20086;-52
2021/12/06 11:16:29;;;;;;;35.95;17.65;;;;;;;1.26;97.47;95403.03;4820206;29;20105;-51
2021/12/06 11:19:05;;;;;;;32.47;17.15;;;;;;;1.39;96.66;95399.69;4822614;29;20134;-51
2021/12/06 11:21:38;;;;;;;30.20;16.35;;;;;;;1.68;94.25;95406.75;4804638;29;20133;-51
2021/12/06 11:24:13;;;;;;;32.33;16.05;;;;;;;2.05;92.56;95408.63;4814236;29;20045;-50
2021/12/06 11:27:12;;;;;;;33.10;16.80;;;;;;;1.64;92.79;95407.34;4825690;29;20078;-52
2021/12/06 11:29:45;;;;;;;32.47;16.45;;;;;;;1.72;93.17;95410.44;4820152;29;20493;-56
2021/12/06 11:32:20;;;;;;;36.75;18.00;;;;;;;1.50;94.57;95414.47;4825375;29;20069;-53
2021/12/06 11:34:57;;;;;;;30.52;16.90;;;;;;;1.48;94.90;95407.84;4816507;29;20055;-55
2021/12/06 11:37:45;;;;;;;33.17;16.80;;;;;;;1.44;96.55;95407.63;4823291;29;20050;-56
2021/12/06 11:40:12;;;;;;;29.98;15.95;;;;;;;1.79;93.89;95403.66;4818175;29;20085;-57
2021/12/06 11:43:00;;;;;;;34.40;17.25;;;;;;;1.57;96.44;95406.13;4805968;29;20054;-56
2021/12/06 11:45:42;;;;;;;30.23;16.20;;;;;;;1.24;96.75;95399.88;4826212;29;20050;-54
2021/12/06 11:48:13;;;;;;;34.17;16.80;;;;;;;1.17;98.69;95395.69;4820027;29;20110;-54
2021/12/06 11:50:49;;;;;;;29.27;15.93;;;;;;;1.01;99.04;95404.94;4813051;29;20046;-55